Time;durP1;ratioP1;P1;durP2;ratioP2;P2;SDS_P1;SDS_P2;PMS_P1;PMS_P2;Temp;Humidity;BMP_temperature;BMP_pressure;BME280_temperature;BME280_humidity;BME280_pressure;Samples;Min_cycle;Max_cycle;Signal;HPM_P1;HPM_P2
2023/04/28 09:21:06;;;;;;;148.07;65.40;;;;;;;;;;5072238;28;20376;-76
2023/04/28 09:23:32;;;;;;;144.20;61.65;;;;;;;;;;5077577;28;20044;-79
2023/04/28 09:25:58;;;;;;;144.20;61.17;;;;;;;;;;5069685;28;20044;-75
2023/04/28 09:28:25;;;;;;;148.10;61.58;;;;;;;;;;5065497;28;20025;-78
2023/04/28 09:30:51;;;;;;;142.43;60.58;;;;;;;;;;5075245;28;20103;-76
2023/04/28 09:33:17;;;;;;;139.57;62.28;;;;;;;;;;5069346;28;20393;-77
2023/04/28 09:35:44;;;;;;;141.82;64.10;;;;;;;;;;5067647;28;20495;-77
2023/04/28 09:38:10;;;;;;;147.38;66.20;;;;;;;;;;5067139;28;20046;-76
2023/04/28 09:40:49;;;;;;;148.32;67.80;;;;;;;;;;5075819;28;20025;-79
2023/04/28 09:43:24;;;;;;;144.30;66.93;;;;;;;;;;5076069;28;20021;-76
2023/04/28 09:45:51;;;;;;;144.70;67.07;;;;;;;;;;5061083;28;20519;-74
2023/04/28 09:48:17;;;;;;;155.05;68.88;;;;;;;;;;5058162;28;20108;-79
2023/04/28 09:50:44;;;;;;;154.15;66.07;;;;;;;;;;5063172;28;20679;-78
2023/04/28 09:53:11;;;;;;;149.30;67.00;;;;;;;;;;5068487;28;20107;-77
2023/04/28 09:55:41;;;;;;;148.60;68.38;;;;;;;;;;5064935;28;20429;-79
2023/04/28 09:58:07;;;;;;;146.45;66.10;;;;;;;;;;5080391;28;20062;-79
2023/04/28 10:00:33;;;;;;;150.48;68.85;;;;;;;;;;5063582;28;20025;-79
2023/04/28 10:02:59;;;;;;;142.13;66.38;;;;;;;;;;5055528;28;20570;-77
2023/04/28 10:05:26;;;;;;;133.57;64.90;;;;;;;;;;5079325;28;20563;-75
2023/04/28 10:07:54;;;;;;;228.93;78.57;;;;;;;;;;5084866;22;20029;-76
2023/04/28 10:10:20;;;;;;;153.77;68.35;;;;;;;;;;5072536;28;20033;-77
2023/04/28 10:12:46;;;;;;;155.27;68.25;;;;;;;;;;5058927;28;20036;-75
2023/04/28 10:15:12;;;;;;;158.57;68.10;;;;;;;;;;5045767;28;20132;-74
2023/04/28 10:17:39;;;;;;;150.45;68.35;;;;;;;;;;5063055;28;20452;-73
2023/04/28 10:20:05;;;;;;;155.15;68.00;;;;;;;;;;5065900;28;20283;-74
2023/04/28 10:22:34;;;;;;;145.95;66.65;;;;;;;;;;5049087;28;20403;-73
2023/04/28 10:25:13;;;;;;;162.38;68.65;;;;;;;;;;5047628;28;20051;-74
2023/04/28 10:27:40;;;;;;;144.00;65.95;;;;;;;;;;5065329;28;20017;-73
2023/04/28 10:41:40;;;;;;;145.88;62.92;;;;;;;20.63;37.89;101122.84;5106687;27;20392;-73
2023/04/28 10:51:55;;;;;;;139.55;61.53;;;;;;;20.88;37.74;101129.53;5075269;28;20359;-75
2023/04/28 10:54:21;;;;;;;163.25;63.67;;;;;;;21.08;37.45;101124.03;5084701;28;20059;-74
2023/04/28 10:57:18;;;;;;;151.85;61.70;;;;;;;21.25;36.71;101127.56;5065693;28;20020;-74
2023/04/28 10:59:44;;;;;;;150.52;62.65;;;;;;;21.37;36.55;101115.41;5047463;28;20021;-76
2023/04/28 11:02:35;;;;;;;154.73;62.17;;;;;;;21.51;36.20;101117.31;5071188;22;20367;-77
2023/04/28 11:05:11;;;;;;;141.18;61.05;;;;;;;21.57;36.12;101117.00;5043891;28;20128;-73
2023/04/28 11:07:36;;;;;;;149.32;62.42;;;;;;;21.61;35.92;101113.25;5047465;28;20529;-76
2023/04/28 11:10:01;;;;;;;149.60;84.00;;;;;;;21.58;36.02;101108.94;5030540;28;20152;-74
2023/04/28 11:12:27;;;;;;;135.70;61.75;;;;;;;21.49;36.08;101113.88;5031024;28;20045;-74
2023/04/28 11:14:52;;;;;;;145.73;63.70;;;;;;;21.49;36.29;101119.19;5020976;28;20016;-76
2023/04/28 11:17:38;;;;;;;146.80;65.38;;;;;;;21.48;35.98;101105.03;5045996;28;20059;-77
2023/04/28 11:20:06;;;;;;;130.43;62.60;;;;;;;21.51;36.20;101109.34;5031637;28;20417;-77
2023/04/28 11:22:31;;;;;;;144.50;63.85;;;;;;;21.48;35.87;101107.69;5032700;28;20060;-77
2023/04/28 11:25:01;;;;;;;147.40;64.03;;;;;;;21.49;35.76;101103.22;5046817;28;20025;-74
2023/04/28 11:27:29;;;;;;;143.20;62.75;;;;;;;21.45;35.99;101106.06;5044039;28;20076;-74
2023/04/28 11:29:54;;;;;;;138.80;62.60;;;;;;;21.42;36.03;101100.94;5045747;28;20025;-74
2023/04/28 11:32:27;;;;;;;145.07;64.90;;;;;;;21.40;36.33;101096.66;5047354;28;20048;-75
2023/04/28 11:34:52;;;;;;;146.07;64.35;;;;;;;21.37;36.36;101092.34;5028817;28;20367;-74
2023/04/28 11:37:20;;;;;;;168.20;66.15;;;;;;;21.31;36.16;101090.06;5045858;28;20103;-74
2023/04/28 11:39:45;;;;;;;137.98;61.67;;;;;;;21.27;36.20;101088.50;5047769;28;20100;-76
2023/04/28 11:42:10;;;;;;;141.18;62.47;;;;;;;21.25;36.07;101090.38;5029696;28;20108;-75
2023/04/28 11:44:36;;;;;;;138.57;61.55;;;;;;;21.20;36.58;101087.09;5027205;28;20036;-75
2023/04/28 11:47:03;;;;;;;138.55;61.30;;;;;;;21.16;36.75;101080.25;5032396;28;20033;-74
2023/04/28 11:49:29;;;;;;;139.23;61.42;;;;;;;21.10;36.71;101076.13;5048218;28;20029;-75
2023/04/28 11:52:05;;;;;;;142.70;62.88;;;;;;;21.09;36.93;101085.03;5028176;28;20030;-75
2023/04/28 11:54:31;;;;;;;142.63;62.63;;;;;;;21.01;37.24;101072.19;5039089;28;20390;-75
2023/04/28 11:56:57;;;;;;;142.50;61.55;;;;;;;20.98;37.11;101076.81;5029990;28;20025;-75
2023/04/28 11:59:24;;;;;;;158.27;63.22;;;;;;;21.00;37.18;101075.78;5023374;28;20364;-75
2023/04/28 12:01:54;;;;;;;134.48;59.75;;;;;;;21.04;36.97;101072.00;5024473;28;20460;-75
2023/04/28 12:04:28;;;;;;;154.27;62.55;;;;;;;21.04;36.83;101066.72;5024225;28;20025;-75
2023/04/28 12:07:00;;;;;;;142.43;60.65;;;;;;;20.97;37.13;101068.00;4995757;28;20130;-75
2023/04/28 12:09:25;;;;;;;135.35;59.78;;;;;;;20.93;37.19;101069.94;5012556;28;20048;-75
2023/04/28 12:12:01;;;;;;;138.52;59.88;;;;;;;20.83;36.96;101060.75;5016117;28;20017;-74
2023/04/28 12:14:27;;;;;;;136.98;59.15;;;;;;;20.71;37.17;101064.06;5016104;28;20045;-74
2023/04/28 12:16:52;;;;;;;138.10;59.65;;;;;;;20.65;37.44;101057.25;5022437;28;20028;-75
2023/04/28 12:19:19;;;;;;;140.57;58.70;;;;;;;20.61;37.48;101058.34;5031782;28;20474;-75
2023/04/28 12:22:06;;;;;;;138.80;59.15;;;;;;;20.58;37.31;101053.22;5014933;28;20073;-75
2023/04/28 12:24:32;;;;;;;155.07;59.60;;;;;;;20.56;37.26;101044.44;5031558;28;20025;-77
2023/04/28 12:27:23;;;;;;;136.80;58.03;;;;;;;20.53;37.54;101034.00;5016259;28;20048;-77
2023/04/28 12:29:49;;;;;;;147.90;58.22;;;;;;;20.49;38.06;101046.59;5014645;28;20117;-77
2023/04/28 12:32:16;;;;;;;132.32;57.53;;;;;;;20.47;37.82;101039.66;5013215;28;20546;-77
2023/04/28 12:34:43;;;;;;;143.70;58.92;;;;;;;20.36;37.66;101033.09;4998280;28;20060;-76
2023/04/28 12:37:08;;;;;;;140.05;59.22;;;;;;;20.35;37.77;101026.06;5022044;28;20029;-76
2023/04/28 12:39:35;;;;;;;134.73;58.20;;;;;;;20.33;37.92;101025.31;5010743;28;20363;-76
2023/04/28 12:42:01;;;;;;;140.73;58.33;;;;;;;20.27;37.72;101020.31;5013217;28;20131;-77
2023/04/28 12:44:27;;;;;;;142.95;58.60;;;;;;;20.24;37.97;101015.16;5015249;28;20063;-74
2023/04/28 12:46:53;;;;;;;132.07;56.88;;;;;;;20.22;38.14;101025.00;5031495;28;20548;-76
2023/04/28 12:49:19;;;;;;;145.98;59.42;;;;;;;20.18;38.23;101020.78;5013481;28;20429;-77
2023/04/28 12:51:44;;;;;;;146.25;59.10;;;;;;;20.12;38.41;101021.09;5028468;28;20021;-76
2023/04/28 12:54:10;;;;;;;154.48;59.75;;;;;;;20.13;38.34;101020.19;5015042;28;20026;-77
2023/04/28 12:56:35;;;;;;;132.68;57.58;;;;;;;20.12;38.05;101018.47;5032045;28;20029;-77
2023/04/28 12:59:04;;;;;;;133.48;58.13;;;;;;;20.13;38.13;101009.56;5032884;28;20104;-77
2023/04/28 13:01:30;;;;;;;141.30;58.22;;;;;;;20.09;38.55;101015.00;5033246;28;20024;-76
2023/04/28 13:03:55;;;;;;;135.90;58.30;;;;;;;20.04;39.00;101017.06;5006716;28;20434;-76
2023/04/28 13:06:21;;;;;;;148.10;59.80;;;;;;;19.99;38.38;101015.56;5030168;28;20092;-77
2023/04/28 13:08:46;;;;;;;138.55;57.88;;;;;;;19.97;38.69;101010.34;4994834;28;20059;-77
2023/04/28 13:11:12;;;;;;;138.60;56.83;;;;;;;19.97;38.64;101002.38;5008129;28;20114;-77
2023/04/28 13:13:37;;;;;;;168.18;61.17;;;;;;;19.99;38.90;101003.19;5027302;28;20055;-76
2023/04/28 13:16:03;;;;;;;137.15;57.80;;;;;;;20.01;38.96;101006.59;5014905;28;20032;-76
2023/04/28 13:18:30;;;;;;;166.00;62.10;;;;;;;20.03;38.54;100998.59;4997603;28;20041;-76
2023/04/28 13:20:55;;;;;;;138.40;57.45;;;;;;;20.07;38.36;101001.00;5035405;28;20029;-76
2023/04/28 13:23:21;;;;;;;143.35;58.45;;;;;;;20.16;38.81;100998.81;5023108;28;20028;-76
2023/04/28 13:25:46;;;;;;;140.00;58.88;;;;;;;20.30;38.49;100996.31;5030114;28;20069;-76
2023/04/28 13:28:13;;;;;;;155.45;60.95;;;;;;;20.39;38.09;100989.66;5018162;28;20024;-78
2023/04/28 13:30:38;;;;;;;151.52;60.28;;;;;;;20.35;38.28;100983.63;5018618;28;20018;-79
2023/04/28 13:33:03;;;;;;;152.90;59.55;;;;;;;20.44;38.73;100980.50;5016561;28;20581;-76
2023/04/28 13:35:29;;;;;;;134.77;57.83;;;;;;;20.52;38.31;100979.22;5036207;28;20017;-76
2023/04/28 13:38:00;;;;;;;136.55;57.53;;;;;;;20.59;37.83;100973.50;5021791;28;20084;-78
2023/04/28 13:40:26;;;;;;;144.75;59.20;;;;;;;20.65;38.02;100974.13;5031611;28;20017;-77
2023/04/28 13:42:51;;;;;;;140.52;58.72;;;;;;;20.65;38.40;100963.50;5018326;28;20441;-79
2023/04/28 13:45:17;;;;;;;148.10;59.70;;;;;;;20.70;38.20;100959.69;5013111;28;20033;-77
2023/04/28 13:47:42;;;;;;;142.45;58.50;;;;;;;20.80;37.73;100956.53;5016367;28;20025;-78
2023/04/28 13:50:07;;;;;;;133.07;56.78;;;;;;;20.67;38.02;100954.53;5000752;28;20018;-77
2023/04/28 13:52:33;;;;;;;140.10;64.15;;;;;;;20.65;38.31;100953.75;5037340;28;20082;-77
2023/04/28 13:54:58;;;;;;;150.35;60.75;;;;;;;20.64;38.20;100956.47;5032822;28;20084;-77
2023/04/28 13:57:24;;;;;;;141.13;60.38;;;;;;;20.54;37.96;100945.50;5020738;28;20584;-77
2023/04/28 13:59:49;;;;;;;136.35;58.78;;;;;;;20.52;38.46;100960.66;5035003;28;20494;-77
2023/04/28 14:02:15;;;;;;;135.07;58.03;;;;;;;20.55;37.88;100955.19;5013568;28;20021;-77
2023/04/28 14:04:46;;;;;;;147.30;59.90;;;;;;;20.52;38.30;100958.00;5000844;28;20063;-78
2023/04/28 14:07:12;;;;;;;137.45;57.95;;;;;;;20.46;38.43;100958.34;5020158;28;20025;-77
2023/04/28 14:09:39;;;;;;;167.13;66.93;;;;;;;20.42;38.63;100953.22;5016309;28;20020;-76
2023/04/28 14:12:05;;;;;;;136.70;57.45;;;;;;;20.53;39.00;100943.78;5033340;28;20055;-77
2023/04/28 14:14:30;;;;;;;139.02;61.00;;;;;;;20.57;39.30;100946.22;5018900;28;20075;-77
2023/04/28 14:16:56;;;;;;;136.10;57.85;;;;;;;20.54;38.62;100937.56;5044351;28;20026;-77
2023/04/28 14:19:21;;;;;;;142.00;62.08;;;;;;;20.42;38.94;100942.59;5036803;28;20021;-77
2023/04/28 14:21:46;;;;;;;133.00;59.30;;;;;;;20.34;39.02;100946.59;5022780;28;20658;-77
2023/04/28 14:24:12;;;;;;;154.68;60.55;;;;;;;20.25;38.73;100939.97;5015909;28;20040;-77
2023/04/28 14:26:37;;;;;;;138.23;60.38;;;;;;;20.24;39.06;100943.56;5011340;28;20033;-78
2023/04/28 14:29:04;;;;;;;141.70;62.45;;;;;;;20.17;39.17;100944.84;5014686;28;20049;-77
2023/04/28 14:31:30;;;;;;;141.90;58.50;;;;;;;20.08;39.06;100944.38;5040672;28;20024;-78
2023/04/28 14:33:55;;;;;;;161.85;63.60;;;;;;;20.03;39.33;100942.91;5014816;28;20041;-77
2023/04/28 14:36:20;;;;;;;149.48;59.33;;;;;;;19.95;39.84;100937.13;5030534;28;20029;-79
2023/04/28 14:38:46;;;;;;;160.98;63.17;;;;;;;19.88;38.98;100941.91;5004374;28;20033;-78
2023/04/28 14:41:11;;;;;;;152.10;59.35;;;;;;;19.85;39.50;100931.44;5012582;28;20071;-78
2023/04/28 14:43:36;;;;;;;143.43;59.22;;;;;;;19.78;39.69;100925.56;5014672;28;20071;-78
2023/04/28 14:46:03;;;;;;;148.15;66.28;;;;;;;19.74;39.35;100930.19;5026712;28;20152;-77
2023/04/28 14:48:29;;;;;;;145.35;63.03;;;;;;;19.74;39.78;100929.31;5011859;28;20048;-77
2023/04/28 14:50:54;;;;;;;140.68;60.88;;;;;;;19.74;39.79;100919.59;5026930;28;20022;-76
2023/04/28 14:53:19;;;;;;;136.85;58.60;;;;;;;19.77;40.94;100914.13;5030346;28;20029;-79
2023/04/28 14:55:45;;;;;;;145.82;63.88;;;;;;;19.74;39.85;100906.34;5033218;28;20345;-78
2023/04/28 14:58:11;;;;;;;142.55;62.85;;;;;;;19.73;40.50;100912.56;5026747;28;20167;-78
2023/04/28 15:00:36;;;;;;;136.45;58.83;;;;;;;19.72;39.96;100915.28;4998454;28;20107;-77
2023/04/28 15:03:02;;;;;;;139.48;62.80;;;;;;;19.66;40.01;100916.47;5020400;28;20029;-77
2023/04/28 15:05:28;;;;;;;147.57;60.20;;;;;;;19.61;40.25;100913.19;5011678;28;20500;-77
2023/04/28 15:07:53;;;;;;;137.13;58.22;;;;;;;19.57;40.49;100906.31;5016798;28;20108;-77
2023/04/28 15:10:18;;;;;;;136.90;62.33;;;;;;;19.56;40.05;100907.25;5034185;28;20421;-77
2023/04/28 15:12:44;;;;;;;135.18;58.17;;;;;;;19.53;40.12;100907.41;4999502;28;20025;-76
2023/04/28 15:15:10;;;;;;;139.13;58.40;;;;;;;19.51;40.69;100906.63;5012958;28;20041;-76
2023/04/28 15:17:35;;;;;;;203.00;69.38;;;;;;;19.52;39.85;100903.03;5009047;28;20048;-77
2023/04/28 15:20:00;;;;;;;193.68;66.82;;;;;;;19.51;40.17;100901.31;5013533;28;20057;-76
2023/04/28 15:22:26;;;;;;;148.35;61.42;;;;;;;19.54;40.55;100895.91;5004562;28;20494;-78
2023/04/28 15:24:51;;;;;;;146.38;60.15;;;;;;;19.56;40.26;100894.00;5015014;28;20401;-77
2023/04/28 15:27:17;;;;;;;160.38;61.60;;;;;;;19.57;40.58;100893.94;5013063;28;20101;-75
2023/04/28 15:29:42;;;;;;;153.23;61.03;;;;;;;19.57;40.41;100898.38;5026352;28;20030;-77
2023/04/28 15:32:08;;;;;;;152.23;62.50;;;;;;;19.57;40.53;100901.03;5026817;28;20021;-78
2023/04/28 15:34:34;;;;;;;156.50;62.03;;;;;;;19.53;40.41;100896.81;5029335;28;20110;-77
2023/04/28 15:37:00;;;;;;;148.40;60.00;;;;;;;19.54;40.66;100888.78;5015535;28;20013;-77
2023/04/28 15:39:27;;;;;;;155.50;61.55;;;;;;;19.53;40.53;100878.28;5015954;28;20026;-77
2023/04/28 15:41:52;;;;;;;145.65;60.38;;;;;;;19.56;40.64;100886.06;5000279;28;20474;-77
2023/04/28 15:44:18;;;;;;;161.07;62.10;;;;;;;19.52;40.09;100871.25;5032394;28;20247;-78
2023/04/28 15:46:43;;;;;;;144.00;59.20;;;;;;;19.52;40.36;100871.25;5019994;28;20028;-78
2023/04/28 15:49:09;;;;;;;153.07;60.80;;;;;;;19.59;40.36;100862.94;5014473;28;20025;-76
2023/04/28 15:51:35;;;;;;;136.85;59.03;;;;;;;19.60;39.89;100863.78;5021529;28;20022;-76
2023/04/28 15:54:00;;;;;;;157.98;62.17;;;;;;;19.61;39.73;100854.91;5018984;28;20033;-77
2023/04/28 15:56:27;;;;;;;153.38;61.13;;;;;;;19.64;40.16;100856.53;5017836;28;20563;-77
2023/04/28 15:58:52;;;;;;;171.73;62.95;;;;;;;19.66;39.71;100852.00;5030424;28;20025;-74
2023/04/28 16:01:17;;;;;;;143.02;59.22;;;;;;;19.63;39.84;100847.72;5030609;28;20164;-77
2023/04/28 16:03:43;;;;;;;151.23;61.40;;;;;;;19.68;39.89;100837.75;5034914;28;20029;-77
2023/04/28 16:06:08;;;;;;;169.93;64.05;;;;;;;19.70;40.82;100833.22;5010881;28;20033;-78
2023/04/28 16:08:34;;;;;;;195.68;67.25;;;;;;;19.73;39.99;100851.59;5013826;28;20167;-76
2023/04/28 16:11:00;;;;;;;172.48;64.30;;;;;;;19.74;39.96;100855.97;5033914;28;20044;-77
2023/04/28 16:13:26;;;;;;;181.35;66.60;;;;;;;19.75;40.41;100844.41;5034061;28;20033;-76
2023/04/28 16:15:52;;;;;;;151.18;59.58;;;;;;;19.82;41.09;100847.63;5020262;28;20032;-75
2023/04/28 16:18:17;;;;;;;150.65;60.20;;;;;;;19.87;40.68;100847.41;5034817;28;20025;-73
2023/04/28 16:20:43;;;;;;;149.38;59.08;;;;;;;19.86;40.98;100843.88;5037550;28;20028;-72
2023/04/28 16:23:11;;;;;;;153.75;60.63;;;;;;;19.86;40.58;100840.41;5016562;28;20037;-75
2023/04/28 16:25:37;;;;;;;143.38;59.00;;;;;;;19.85;41.13;100836.91;5022354;28;20037;-73
2023/04/28 16:28:03;;;;;;;151.50;58.80;;;;;;;19.85;41.46;100842.19;5005432;28;20083;-72
2023/04/28 16:30:28;;;;;;;143.73;59.53;;;;;;;19.89;41.33;100834.91;5037421;28;20536;-71
2023/04/28 16:32:57;;;;;;;135.70;58.95;;;;;;;19.91;41.38;100825.09;5016292;28;20030;-71
2023/04/28 16:35:22;;;;;;;168.82;64.05;;;;;;;19.90;41.21;100818.09;5028744;28;20033;-77
2023/04/28 16:37:48;;;;;;;163.70;62.35;;;;;;;19.90;41.84;100831.34;5012979;28;20049;-77
2023/04/28 16:40:14;;;;;;;167.48;61.10;;;;;;;19.86;41.85;100838.59;5014986;28;20057;-71
2023/04/28 16:42:40;;;;;;;156.43;61.60;;;;;;;19.84;42.39;100843.13;5033999;28;20139;-72
2023/04/28 16:45:07;;;;;;;155.80;61.97;;;;;;;19.78;42.69;100843.41;5012554;28;20037;-73
2023/04/28 16:47:32;;;;;;;146.70;59.72;;;;;;;19.75;42.34;100835.63;5037447;28;20029;-72
2023/04/28 16:49:58;;;;;;;146.23;60.05;;;;;;;19.67;41.74;100835.16;5020877;28;20029;-71
2023/04/28 16:52:23;;;;;;;155.63;61.42;;;;;;;19.67;42.48;100843.97;5011435;28;20051;-70
2023/04/28 16:54:48;;;;;;;158.35;61.60;;;;;;;19.63;41.92;100847.72;5028496;28;20175;-72
2023/04/28 16:57:14;;;;;;;142.95;58.88;;;;;;;19.62;42.40;100845.16;5016201;28;20474;-70
2023/04/28 16:59:40;;;;;;;145.38;62.90;;;;;;;19.63;42.13;100855.66;5039268;28;20045;-71
2023/04/28 17:02:05;;;;;;;137.50;59.10;;;;;;;19.61;41.50;100854.91;5032897;28;20021;-72
2023/04/28 17:04:31;;;;;;;142.05;58.50;;;;;;;19.57;41.94;100856.00;5009984;28;20054;-71
2023/04/28 17:06:57;;;;;;;153.75;62.67;;;;;;;19.55;42.08;100855.19;5000504;28;20051;-71
2023/04/28 17:09:22;;;;;;;142.23;59.50;;;;;;;19.55;42.01;100860.50;5015963;28;20474;-72
2023/04/28 17:11:48;;;;;;;140.15;58.45;;;;;;;19.53;41.93;100868.53;5035062;28;20112;-71
2023/04/28 17:14:13;;;;;;;163.23;63.08;;;;;;;19.50;42.07;100851.94;5016233;28;20044;-71
2023/04/28 17:16:39;;;;;;;145.73;59.80;;;;;;;19.52;42.39;100850.06;5022079;28;20039;-71
2023/04/28 17:19:05;;;;;;;135.85;58.72;;;;;;;19.52;41.83;100839.47;5020230;28;20033;-71
2023/04/28 17:21:30;;;;;;;141.50;59.38;;;;;;;19.49;42.19;100856.38;5016802;28;20029;-72
2023/04/28 17:23:56;;;;;;;140.43;59.90;;;;;;;19.47;41.87;100852.09;5033007;28;20601;-73
2023/04/28 17:26:22;;;;;;;142.88;58.95;;;;;;;19.47;41.96;100846.78;5008425;28;20115;-71
2023/04/28 17:28:48;;;;;;;143.10;60.55;;;;;;;19.45;41.85;100844.22;5036179;28;20109;-70
2023/04/28 17:31:14;;;;;;;145.60;60.53;;;;;;;19.42;42.00;100832.00;5031279;28;20039;-70
2023/04/28 17:33:39;;;;;;;138.40;64.53;;;;;;;19.45;42.50;100835.44;5028191;28;20026;-73
2023/04/28 17:36:05;;;;;;;161.55;63.53;;;;;;;19.45;41.80;100827.47;5020131;28;20565;-71
2023/04/28 17:38:31;;;;;;;150.15;63.20;;;;;;;19.43;41.98;100831.06;5019314;28;20528;-72
2023/04/28 17:40:56;;;;;;;143.82;59.25;;;;;;;19.40;42.40;100830.34;5017788;28;20048;-71
2023/04/28 17:43:21;;;;;;;154.85;63.35;;;;;;;19.36;42.24;100828.78;5017539;28;20057;-71
2023/04/28 17:45:47;;;;;;;144.07;64.47;;;;;;;19.34;42.44;100831.53;5030700;28;20117;-72
2023/04/28 17:48:12;;;;;;;136.90;60.80;;;;;;;19.29;42.49;100833.53;5021825;28;20017;-71
2023/04/28 17:50:38;;;;;;;148.68;68.10;;;;;;;19.27;42.91;100840.72;5044950;28;20039;-73
2023/04/28 17:53:03;;;;;;;148.75;64.78;;;;;;;19.23;43.13;100841.81;5017892;28;20060;-71
2023/04/28 17:55:28;;;;;;;157.57;67.28;;;;;;;19.19;43.16;100849.03;5033014;28;20032;-71
2023/04/28 17:57:54;;;;;;;138.48;59.22;;;;;;;19.18;42.89;100851.78;4999086;28;20033;-72
2023/04/28 18:00:19;;;;;;;138.63;60.42;;;;;;;19.17;43.02;100856.22;5015684;28;20022;-73
2023/04/28 18:02:45;;;;;;;155.00;60.70;;;;;;;19.14;43.11;100855.50;5015246;28;20076;-71
2023/04/28 18:05:10;;;;;;;146.88;62.33;;;;;;;19.12;43.14;100863.53;5044860;28;20023;-73
2023/04/28 18:07:36;;;;;;;137.10;61.10;;;;;;;19.11;43.18;100861.81;5042366;28;21202;-72
2023/04/28 18:10:02;;;;;;;160.25;61.78;;;;;;;19.08;43.09;100868.09;5022148;28;20914;-72
2023/04/28 18:12:28;;;;;;;141.23;59.50;;;;;;;19.08;42.79;100862.81;5015316;28;20112;-72
2023/04/28 18:14:53;;;;;;;138.52;58.97;;;;;;;19.06;43.24;100864.69;5033833;28;20031;-72
2023/04/28 18:17:18;;;;;;;135.10;57.45;;;;;;;19.05;43.48;100868.25;5037804;28;20029;-72
2023/04/28 18:19:44;;;;;;;139.55;61.08;;;;;;;19.04;42.92;100868.34;5031297;28;20041;-72
2023/04/28 18:22:09;;;;;;;152.10;62.75;;;;;;;19.02;43.43;100871.06;5019663;28;20052;-71
2023/04/28 18:24:34;;;;;;;151.88;60.65;;;;;;;19.01;43.10;100864.06;5036135;28;20474;-72
2023/04/28 18:27:01;;;;;;;140.02;58.50;;;;;;;19.01;43.04;100864.06;5002824;28;20178;-71
2023/04/28 18:29:26;;;;;;;145.70;59.83;;;;;;;19.03;43.50;100859.56;5036107;28;20068;-71
2023/04/28 18:31:51;;;;;;;147.00;60.40;;;;;;;18.99;43.28;100858.00;5029368;28;20021;-71
2023/04/28 18:34:17;;;;;;;156.60;61.97;;;;;;;18.99;42.83;100855.34;5020681;28;20033;-69
2023/04/28 18:36:42;;;;;;;145.10;60.70;;;;;;;18.99;43.23;100852.69;5036329;28;20044;-71
2023/04/28 18:39:08;;;;;;;144.02;60.85;;;;;;;18.99;42.87;100847.41;5012985;28;20482;-70
2023/04/28 18:41:35;;;;;;;145.77;60.03;;;;;;;18.98;43.46;100848.31;5016582;28;20017;-70
2023/04/28 18:44:01;;;;;;;145.13;60.50;;;;;;;18.98;42.95;100850.97;5019600;28;20033;-71
2023/04/28 18:46:28;;;;;;;135.75;57.90;;;;;;;19.01;42.97;100844.69;5003917;28;20025;-71
2023/04/28 18:48:53;;;;;;;140.70;61.30;;;;;;;18.99;43.34;100841.22;5021004;28;20025;-71
2023/04/28 18:51:19;;;;;;;166.50;66.30;;;;;;;19.01;42.96;100840.22;5012526;28;20018;-71
2023/04/28 18:53:45;;;;;;;150.38;61.00;;;;;;;18.99;43.29;100831.53;5028791;28;20059;-71
2023/04/28 18:56:10;;;;;;;138.95;62.03;;;;;;;19.01;43.24;100831.44;5012179;28;20029;-71
2023/04/28 18:58:36;;;;;;;137.70;60.92;;;;;;;19.01;43.14;100829.63;5037898;28;20048;-71
2023/04/28 19:01:02;;;;;;;134.68;59.38;;;;;;;19.01;43.70;100834.94;4997785;28;20025;-71
2023/04/28 19:03:27;;;;;;;146.90;59.72;;;;;;;19.00;43.50;100832.38;5016100;28;20441;-71
2023/04/28 19:05:53;;;;;;;142.70;59.50;;;;;;;19.02;43.51;100841.06;5017859;28;20053;-70
2023/04/28 19:08:18;;;;;;;151.05;59.67;;;;;;;19.01;43.54;100834.94;5029520;28;20029;-70
2023/04/28 19:10:43;;;;;;;140.43;59.60;;;;;;;19.00;43.37;100830.56;5039053;28;20060;-71
2023/04/28 19:13:09;;;;;;;142.93;59.50;;;;;;;19.02;42.94;100826.06;5036072;28;20053;-70
2023/04/28 19:15:34;;;;;;;140.93;60.17;;;;;;;19.01;42.85;100823.50;5034813;28;20109;-71
2023/04/28 19:18:00;;;;;;;146.05;60.25;;;;;;;19.00;42.84;100835.84;5044148;28;20032;-71
2023/04/28 19:20:25;;;;;;;151.35;61.08;;;;;;;19.00;43.67;100845.59;5035681;28;20067;-71
2023/04/28 19:22:51;;;;;;;150.27;61.15;;;;;;;19.03;43.71;100859.56;4999677;28;20033;-75
2023/04/28 19:25:16;;;;;;;176.23;66.13;;;;;;;19.04;44.99;100855.94;5025615;28;20045;-70
2023/04/28 19:27:42;;;;;;;153.38;61.92;;;;;;;19.10;44.79;100865.38;5025732;28;20036;-72
2023/04/28 19:30:10;;;;;;;144.90;60.35;;;;;;;19.11;44.92;100860.97;5011891;28;20025;-71
2023/04/28 19:32:36;;;;;;;145.98;59.95;;;;;;;19.14;45.20;100866.09;5000543;28;20032;-71
2023/04/28 19:35:02;;;;;;;143.70;61.08;;;;;;;19.11;45.15;100876.84;5030125;28;20025;-70
2023/04/28 19:37:28;;;;;;;166.60;63.08;;;;;;;19.08;45.30;100878.69;5024083;28;20125;-70
2023/04/28 19:39:54;;;;;;;145.25;61.25;;;;;;;19.09;45.89;100885.72;5015616;28;20133;-71
2023/04/28 19:42:19;;;;;;;151.48;60.90;;;;;;;19.17;45.44;100895.06;5029111;28;20500;-71
2023/04/28 19:44:45;;;;;;;147.40;61.50;;;;;;;19.20;45.46;100887.84;5029455;28;20041;-71
2023/04/28 19:47:11;;;;;;;145.95;60.97;;;;;;;19.20;46.06;100884.34;5010227;28;20452;-70
2023/04/28 19:49:37;;;;;;;142.25;61.10;;;;;;;19.18;45.86;100872.94;5032456;28;20094;-70
2023/04/28 19:52:08;;;;;;;151.60;61.58;;;;;;;19.18;45.38;100880.91;5016169;28;20021;-71
2023/04/28 19:54:33;;;;;;;172.27;65.43;;;;;;;19.16;45.62;100875.69;5008177;28;20041;-70
2023/04/28 19:57:00;;;;;;;159.10;64.95;;;;;;;19.20;46.19;100873.75;5009923;28;20478;-70
2023/04/28 19:59:25;;;;;;;152.82;63.97;;;;;;;19.22;45.63;100879.81;5010440;28;20033;-69
2023/04/28 20:01:51;;;;;;;150.48;64.30;;;;;;;19.22;46.13;100885.97;5007626;28;20514;-69
2023/04/28 20:04:17;;;;;;;154.63;63.55;;;;;;;19.19;45.69;100875.50;5021481;28;20091;-70
2023/04/28 20:06:43;;;;;;;160.85;65.53;;;;;;;19.19;45.27;100878.16;5005993;28;20111;-70
2023/04/28 20:09:09;;;;;;;140.70;62.88;;;;;;;19.19;45.67;100875.50;5013733;28;20498;-69
2023/04/28 20:11:34;;;;;;;146.38;63.17;;;;;;;19.21;45.71;100875.44;5017551;28;20041;-69
2023/04/28 20:14:00;;;;;;;149.82;62.05;;;;;;;19.20;45.66;100873.75;5027666;28;20379;-68
2023/04/28 20:16:25;;;;;;;167.50;65.93;;;;;;;19.21;46.17;100875.44;5012065;28;20487;-71
2023/04/28 20:18:51;;;;;;;152.43;61.97;;;;;;;19.22;45.74;100872.75;5016574;28;20040;-70
2023/04/28 20:21:17;;;;;;;142.73;62.67;;;;;;;19.24;45.73;100872.66;5016016;28;20045;-70
2023/04/28 20:23:42;;;;;;;155.98;72.10;;;;;;;19.22;45.90;100879.81;5010058;28;20041;-69
2023/04/28 20:26:14;;;;;;;143.27;60.50;;;;;;;19.20;46.06;100873.75;5027141;28;20021;-70
2023/04/28 20:28:42;;;;;;;144.18;60.25;;;;;;;19.23;45.81;100876.22;5019549;28;20033;-69
2023/04/28 20:31:07;;;;;;;148.38;61.50;;;;;;;19.21;45.60;100872.78;5023814;28;20068;-69
2023/04/28 20:33:33;;;;;;;144.23;59.10;;;;;;;19.21;45.66;100872.78;5012361;28;20029;-69
2023/04/28 20:35:58;;;;;;;142.95;60.50;;;;;;;19.20;45.51;100876.41;5016873;28;20030;-69
2023/04/28 20:38:24;;;;;;;152.88;62.45;;;;;;;19.21;46.11;100878.97;5016359;28;20059;-69
2023/04/28 20:40:49;;;;;;;147.63;60.30;;;;;;;19.22;45.79;100871.88;5034358;28;20021;-70
2023/04/28 20:43:15;;;;;;;157.52;63.45;;;;;;;19.27;45.40;100876.94;5012681;28;20559;-68
2023/04/28 20:45:40;;;;;;;143.65;59.67;;;;;;;19.27;45.45;100872.50;5026635;28;20026;-70
2023/04/28 20:48:06;;;;;;;131.68;58.17;;;;;;;19.23;45.36;100881.53;5029106;28;20647;-70
2023/04/28 20:50:32;;;;;;;143.82;59.75;;;;;;;19.25;45.90;100879.66;5014327;28;20036;-70
2023/04/28 20:52:58;;;;;;;143.45;59.90;;;;;;;19.24;45.86;100880.59;5011332;28;20030;-70